»·PEaware :: N93HF L52-L88

N93HF :: L52-L88

FLIGHT INFORMATION

Flight Status: Arrived
Operator: Privately registered:
United States
More flights under this callsign
Pilot: Jerrivel R. (26020)
Aircraft: CESSNA 172 SKYHAWK
(C172)
More flights by this aircraft type
Origin: L52 Oceano Co
United States
Destination: L88 New Cuyama
United States
More flights between these airports :: More routes between these airports
Route: FLK
File this flight plan on PilotEdge
Remarks: CAT-1 rating
Altitude:
(Current/Filed)
7,500ft
Speed:
(Current/Filed)
106kts
Departed: 10-Jan-21 12:46 PM
Arrived: 10-Jan-21 01:21 PM
Distance/Time
Traveled:
47nm/0:35
Distance/Time
To Go:
Arrived

Flight Plot

Page will automatically refresh every two minutes.

Flight plan parsing failed; only flown route is shown


Map Options




Map Legend


Flown Route
Filed Route
Departure Airport
Arrival Airport
Navaid (VOR, NDB)
Fix

Horizontal Profiles

Position Reports

Time Latitude Longitude Heading Altitude Ground
Speed
10-Jan-21 12:11 35.103385 -120.624258 34 17ft 0kts
10-Jan-21 12:12 35.103385 -120.624258 34 17ft 0kts
10-Jan-21 12:13 35.103385 -120.624258 34 17ft 0kts
10-Jan-21 12:14 35.103385 -120.624258 34 17ft 0kts
10-Jan-21 12:15 35.103385 -120.624258 34 17ft 0kts
10-Jan-21 12:16 35.103385 -120.624258 34 17ft 0kts
10-Jan-21 12:18 35.099757 -120.619235 304 17ft 0kts
10-Jan-21 12:19 35.103385 -120.624258 34 17ft 0kts
10-Jan-21 12:21 35.103385 -120.624258 34 17ft 0kts
10-Jan-21 12:22 35.103385 -120.624258 34 17ft 0kts
10-Jan-21 12:23 35.103385 -120.624258 34 17ft 0kts
10-Jan-21 12:24 35.103385 -120.624258 34 17ft 0kts
10-Jan-21 12:25 40.798700 -73.108495 269 102ft 0kts
10-Jan-21 12:28 35.103385 -120.624258 0 17ft 0kts
10-Jan-21 12:29 35.103385 -120.624258 34 17ft 0kts
10-Jan-21 12:30 35.103385 -120.624258 34 17ft 0kts
10-Jan-21 12:31 35.103387 -120.624257 34 17ft 0kts
10-Jan-21 12:32 35.103389 -120.624254 34 17ft 0kts
10-Jan-21 12:33 35.103392 -120.624252 34 17ft 0kts
10-Jan-21 12:34 35.103394 -120.624250 34 17ft 0kts
10-Jan-21 12:34 35.103396 -120.624248 34 17ft 0kts
10-Jan-21 12:36 35.103207 -120.624243 138 17ft 4kts
10-Jan-21 12:37 35.102231 -120.624322 211 17ft 6kts
10-Jan-21 12:37 35.100891 -120.622067 121 17ft 13kts
10-Jan-21 12:38 35.100617 -120.621569 106 17ft 0kts
10-Jan-21 12:39 35.100616 -120.621563 106 17ft 0kts
10-Jan-21 12:40 35.100614 -120.621557 106 17ft 0kts
10-Jan-21 12:41 35.100613 -120.621553 106 17ft 0kts
10-Jan-21 12:42 35.100612 -120.621549 106 17ft 0kts
10-Jan-21 12:43 35.099558 -120.619498 85 17ft 0kts
10-Jan-21 12:44 35.100068 -120.619797 305 17ft 28kts
10-Jan-21 12:45 35.104974 -120.638705 223 803ft 78kts
10-Jan-21 12:46 35.103556 -120.624850 28 1985ft 82kts
10-Jan-21 12:47 35.122915 -120.607958 36 3196ft 81kts
10-Jan-21 12:48 35.139478 -120.591378 30 4599ft 75kts
10-Jan-21 12:49 35.156114 -120.575302 32 5588ft 80kts
10-Jan-21 12:50 35.172288 -120.556497 36 6418ft 81kts
10-Jan-21 12:51 35.187748 -120.534713 42 7034ft 89kts
10-Jan-21 12:52 35.202373 -120.511919 42 7486ft 96kts
10-Jan-21 12:53 35.202846 -120.473668 83 7521ft 120kts
10-Jan-21 12:54 35.199637 -120.433138 90 7496ft 120kts
10-Jan-21 12:55 35.194967 -120.394034 93 7478ft 116kts
10-Jan-21 12:56 35.188754 -120.355659 89 7484ft 116kts
10-Jan-21 12:57 35.182824 -120.316989 93 7506ft 116kts
10-Jan-21 12:58 35.175316 -120.278564 98 7558ft 117kts
10-Jan-21 12:59 35.164500 -120.240127 103 7568ft 119kts
10-Jan-21 13:00 35.153878 -120.201292 92 7526ft 118kts
10-Jan-21 13:01 35.150293 -120.161890 88 7529ft 116kts
10-Jan-21 13:02 35.145180 -120.122884 97 7520ft 119kts
10-Jan-21 13:03 35.134374 -120.084692 103 7534ft 120kts
10-Jan-21 13:04 35.125477 -120.045090 94 7457ft 122kts
10-Jan-21 13:05 35.119519 -120.005675 89 7537ft 113kts
10-Jan-21 13:06 35.112435 -119.967411 99 7508ft 119kts
10-Jan-21 13:07 35.105253 -119.929033 91 6984ft 108kts
10-Jan-21 13:08 35.098143 -119.893347 107 6462ft 110kts
10-Jan-21 13:09 35.090675 -119.857910 114 5914ft 109kts
10-Jan-21 13:10 35.063994 -119.837642 140 5291ft 115kts
10-Jan-21 13:11 35.037334 -119.817331 149 5064ft 117kts
10-Jan-21 13:12 35.011372 -119.798553 139 4481ft 104kts
10-Jan-21 13:13 34.988443 -119.778548 150 3947ft 102kts
10-Jan-21 13:14 34.965398 -119.760837 148 3595ft 97kts
10-Jan-21 13:15 34.947294 -119.738805 100 3377ft 90kts
10-Jan-21 13:16 34.940544 -119.710154 116 3196ft 91kts
10-Jan-21 13:17 34.928033 -119.682574 118 3149ft 88kts
10-Jan-21 13:18 34.929139 -119.661700 342 2754ft 72kts
10-Jan-21 13:19 34.937696 -119.679942 294 2211ft 53kts
10-Jan-21 13:20 34.942223 -119.690817 339 2206ft 8kts
10-Jan-21 13:21 34.942927 -119.690971 121 2206ft 4kts
10-Jan-21 13:22 34.942566 -119.689947 116 2206ft 0kts
10-Jan-21 13:23 34.942566 -119.689947 116 2206ft 0kts
10-Jan-21 13:24 34.942566 -119.689947 116 2206ft 0kts
10-Jan-21 13:25 34.942566 -119.689947 116 2206ft 0kts
10-Jan-21 13:26 34.942566 -119.689947 116 2206ft 0kts
10-Jan-21 13:27 34.942566 -119.689947 116 2206ft 0kts
10-Jan-21 13:28 34.942566 -119.689947 116 2206ft 0kts
10-Jan-21 13:29 34.942566 -119.689947 116 2206ft 0kts
10-Jan-21 13:30 34.942566 -119.689947 116 2206ft 0kts
10-Jan-21 13:31 34.942566 -119.689947 116 2206ft 0kts
10-Jan-21 13:32 34.942566 -119.689947 116 2206ft 0kts
10-Jan-21 13:33 34.942566 -119.689947 116 2206ft 0kts
10-Jan-21 13:34 34.942566 -119.689947 116 2206ft 0kts

Navigation Log

Ident Type
Flight plan parsing failed, navigation log unavailable